createdAt,value
2022-08-17T00:02:25.847Z,96790.72
2022-08-17T00:04:55.663Z,96791.78
2022-08-17T00:07:23.669Z,96793.81
2022-08-17T00:09:50.871Z,96790.31
2022-08-17T00:12:51.162Z,96785.59
2022-08-17T00:15:12.336Z,96790.53
2022-08-17T00:17:42.468Z,96783.97
2022-08-17T00:20:12.396Z,96775.97
2022-08-17T00:22:39.996Z,96777.47
2022-08-17T00:25:12.660Z,96766.16
2022-08-17T00:27:40.805Z,96761.84
2022-08-17T00:30:11.043Z,96769.19
2022-08-17T00:33:14.543Z,96769.59
2022-08-17T00:35:39.576Z,96773.69
2022-08-17T00:38:10.337Z,96767.38
2022-08-17T00:41:03.801Z,96774.91
2022-08-17T00:43:44.539Z,96779.41
2022-08-17T00:46:26.776Z,96773.28
2022-08-17T00:48:54.343Z,96783.50
2022-08-17T00:51:55.279Z,96773.88
2022-08-17T00:54:41.927Z,96780.25
2022-08-17T00:57:15.576Z,96776.91
2022-08-17T01:00:02.330Z,96779.78
2022-08-17T01:02:41.556Z,96777.31
2022-08-17T01:05:18.475Z,96779.75
2022-08-17T01:07:48.186Z,96784.28
2022-08-17T01:10:59.083Z,96790.38
2022-08-17T01:13:06.124Z,96783.22
2022-08-17T01:15:36.065Z,96785.88
2022-08-17T01:18:05.979Z,96783.53
2022-08-17T01:20:47.843Z,96773.91
2022-08-17T01:23:20.516Z,96780.03
2022-08-17T01:25:55.617Z,96772.44
2022-08-17T01:28:52.389Z,96776.66
2022-08-17T01:31:13.339Z,96777.03
2022-08-17T01:33:40.974Z,96776.66
2022-08-17T01:36:09.159Z,96770.06
2022-08-17T01:38:38.357Z,96770.72
2022-08-17T01:41:16.704Z,96772.19
2022-08-17T01:44:00.121Z,96766.84
2022-08-17T01:46:34.781Z,96772.56
2022-08-17T01:49:05.838Z,96760.91
2022-08-17T01:51:34.059Z,96762.56
2022-08-17T01:54:05.783Z,96767.44
2022-08-17T01:56:35.420Z,96758.25
2022-08-17T01:59:04.092Z,96751.81
2022-08-17T02:01:34.019Z,96750.78
2022-08-17T02:04:02.681Z,96762.81
2022-08-17T02:06:45.199Z,96753.59
2022-08-17T02:09:25.369Z,96751.53
2022-08-17T02:11:57.879Z,96749.28
2022-08-17T02:14:26.116Z,96746.25
2022-08-17T02:16:54.387Z,96747.88
2022-08-17T02:19:23.152Z,96751.97
2022-08-17T02:21:53.309Z,96752.59
2022-08-17T02:24:58.778Z,96751.97
2022-08-17T02:27:15.584Z,96750.31
2022-08-17T02:29:42.758Z,96745.81
2022-08-17T02:32:27.693Z,96755.25
2022-08-17T02:34:59.440Z,96743.38
2022-08-17T02:37:28.576Z,96740.53
2022-08-17T02:40:01.132Z,96744.63
2022-08-17T02:42:40.855Z,96739.19
2022-08-17T02:45:14.132Z,96744.13
2022-08-17T02:47:42.436Z,96744.31
2022-08-17T02:50:13.288Z,96742.03
2022-08-17T02:52:43.601Z,96741.69
2022-08-17T02:55:34.610Z,96742.88
2022-08-17T02:58:04.435Z,96746.53
2022-08-17T03:00:36.044Z,96749.03
2022-08-17T03:03:06.133Z,96746.75
2022-08-17T03:05:39.921Z,96745.28
2022-08-17T03:08:12.966Z,96751.84
2022-08-17T03:10:41.121Z,96760.38
2022-08-17T03:13:08.196Z,96753.84
2022-08-17T03:15:35.640Z,96762.44
2022-08-17T03:18:04.502Z,96766.53
2022-08-17T03:20:33.902Z,96773.31
2022-08-17T03:23:02.028Z,96771.66
2022-08-17T03:25:38.107Z,96771.03
2022-08-17T03:28:07.195Z,96771.22
2022-08-17T03:30:35.388Z,96771.41
2022-08-17T03:35:55.353Z,96777.13
2022-08-17T03:38:23.289Z,96783.28
2022-08-17T03:40:59.066Z,96777.91
2022-08-17T03:43:33.184Z,96785.22
2022-08-17T03:46:28.402Z,96788.53
2022-08-17T03:49:44.208Z,96793.72
2022-08-17T03:52:33.023Z,96796.81
2022-08-17T03:55:20.066Z,96810.38
2022-08-17T03:58:03.148Z,96807.31
2022-08-17T04:00:31.026Z,96804.47
2022-08-17T04:02:59.537Z,96813.50
2022-08-17T04:05:27.064Z,96810.66
2022-08-17T04:07:54.309Z,96806.66
2022-08-17T04:10:33.885Z,96813.81
2022-08-17T04:13:06.014Z,96821.97
2022-08-17T04:15:33.984Z,96823.69
2022-08-17T04:18:01.202Z,96825.72
2022-08-17T04:20:28.669Z,96822.03
2022-08-17T04:22:59.823Z,96836.84
2022-08-17T04:25:27.686Z,96829.91
2022-08-17T04:27:56.010Z,96833.81
2022-08-17T04:30:23.571Z,96836.94
2022-08-17T04:33:05.222Z,96844.78
2022-08-17T04:35:40.626Z,96837.00
2022-08-17T04:38:09.699Z,96831.31
2022-08-17T04:40:55.618Z,96832.16
2022-08-17T04:43:24.658Z,96830.91
2022-08-17T04:45:57.158Z,96835.06
2022-08-17T04:48:35.571Z,96835.94
2022-08-17T04:51:17.670Z,96838.03
2022-08-17T04:53:55.231Z,96837.66
2022-08-17T04:56:22.941Z,96841.06
2022-08-17T04:58:52.580Z,96836.13
2022-08-17T05:01:25.960Z,96844.00
2022-08-17T05:03:56.469Z,96840.97
2022-08-17T05:06:24.720Z,96843.69
2022-08-17T05:08:52.263Z,96837.91
2022-08-17T05:11:19.870Z,96838.66
2022-08-17T05:13:50.467Z,96838.34
2022-08-17T05:16:19.110Z,96843.31
2022-08-17T05:18:47.309Z,96840.66
2022-08-17T05:21:17.721Z,96849.50
2022-08-17T05:23:46.221Z,96835.25
2022-08-17T05:26:40.430Z,96846.84
2022-08-17T05:29:09.731Z,96849.00
2022-08-17T05:31:39.345Z,96846.59
2022-08-17T05:34:07.486Z,96850.47
2022-08-17T05:36:37.966Z,96851.25
2022-08-17T05:39:16.114Z,96853.50
2022-08-17T05:41:46.287Z,96853.69
2022-08-17T05:44:13.653Z,96841.16
2022-08-17T05:46:44.477Z,96838.59
2022-08-17T05:49:15.074Z,96839.38
2022-08-17T05:52:02.485Z,96833.88
2022-08-17T05:54:42.576Z,96829.06
2022-08-17T05:57:39.578Z,96831.16
2022-08-17T06:00:30.633Z,96822.94
2022-08-17T06:03:27.369Z,96817.84
2022-08-17T06:06:17.494Z,96815.84
2022-08-17T06:09:00.845Z,96819.63
2022-08-17T06:11:53.439Z,96818.81
2022-08-17T06:15:14.300Z,96820.66
2022-08-17T06:17:43.351Z,96823.97
2022-08-17T06:20:16.375Z,96812.47
2022-08-17T06:22:51.882Z,96817.31
2022-08-17T06:25:39.511Z,96814.47
2022-08-17T06:28:13.834Z,96816.88
2022-08-17T06:30:59.272Z,96813.81
2022-08-17T06:33:37.987Z,96801.97
2022-08-17T06:36:35.627Z,96809.13
2022-08-17T06:39:27.714Z,96804.34
2022-08-17T06:42:01.720Z,96796.25
2022-08-17T06:45:03.759Z,96793.50
2022-08-17T06:48:00.167Z,96793.28
2022-08-17T06:50:36.448Z,96796.50
2022-08-17T06:53:29.818Z,96785.94
2022-08-17T06:56:10.675Z,96782.38
2022-08-17T06:58:41.996Z,96787.25
2022-08-17T07:01:18.254Z,96789.97
2022-08-17T07:03:59.208Z,96785.31
2022-08-17T07:06:38.773Z,96787.69
2022-08-17T07:09:29.013Z,96781.78
2022-08-17T07:12:00.322Z,96776.03
2022-08-17T07:14:39.889Z,96779.25
2022-08-17T07:17:10.998Z,96780.88
2022-08-17T07:19:41.333Z,96778.06
2022-08-17T07:22:57.538Z,96781.22
2022-08-17T07:25:23.583Z,96777.44
2022-08-17T07:27:54.073Z,96782.47
2022-08-17T07:30:47.355Z,96772.91
2022-08-17T07:33:20.445Z,96782.63
2022-08-17T07:35:50.341Z,96775.56
2022-08-17T07:38:25.259Z,96770.84
2022-08-17T07:41:14.010Z,96780.19
2022-08-17T07:43:41.163Z,96780.78
2022-08-17T07:46:46.500Z,96778.78
2022-08-17T07:49:13.536Z,96777.84
2022-08-17T07:51:43.992Z,96784.41
2022-08-17T07:54:21.708Z,96784.22
2022-08-17T07:56:55.017Z,96771.06
2022-08-17T07:59:27.199Z,96769.84
2022-08-17T08:02:10.250Z,96761.16
2022-08-17T08:05:08.898Z,96767.44
2022-08-17T08:07:48.041Z,96762.00
2022-08-17T08:10:33.739Z,96758.25
2022-08-17T08:13:15.040Z,96760.28
2022-08-17T08:15:53.942Z,96765.16
2022-08-17T08:18:41.197Z,96758.06
2022-08-17T08:21:49.148Z,96757.34
2022-08-17T08:24:31.398Z,96754.75
2022-08-17T08:27:27.396Z,96758.16
2022-08-17T08:30:05.014Z,96745.72
2022-08-17T08:32:57.278Z,96757.63
2022-08-17T08:35:32.712Z,96755.91
2022-08-17T08:38:08.626Z,96749.66
2022-08-17T08:41:07.090Z,96746.91
2022-08-17T08:44:13.894Z,96741.84
2022-08-17T08:46:49.762Z,96746.41
2022-08-17T08:50:03.444Z,96740.16
2022-08-17T08:52:43.279Z,96747.06
2022-08-17T08:55:44.873Z,96752.63
2022-08-17T08:58:32.121Z,96741.50
2022-08-17T09:01:16.737Z,96750.69
2022-08-17T09:04:26.765Z,96746.34
2022-08-17T09:07:15.601Z,96747.09
2022-08-17T09:10:03.464Z,96750.97
2022-08-17T09:16:03.492Z,96755.13
2022-08-17T09:19:00.309Z,96750.75
2022-08-17T09:21:56.749Z,96767.00
2022-08-17T09:24:40.221Z,96765.66
2022-08-17T09:27:22.380Z,96761.84
2022-08-17T09:29:58.020Z,96769.94
2022-08-17T09:32:55.525Z,96767.63
2022-08-17T09:35:32.758Z,96758.16
2022-08-17T09:38:19.626Z,96769.25
2022-08-17T09:41:13.555Z,96772.03
2022-08-17T09:44:01.906Z,96767.94
2022-08-17T09:46:43.786Z,96764.97
2022-08-17T09:49:42.770Z,96760.84
2022-08-17T09:52:24.153Z,96751.72
2022-08-17T09:54:53.689Z,96750.13
2022-08-17T09:57:30.289Z,96758.25
2022-08-17T10:00:16.955Z,96757.25
2022-08-17T10:02:59.242Z,96759.88
2022-08-17T10:05:48.104Z,96755.44
2022-08-17T10:08:53.165Z,96743.00
2022-08-17T10:11:55.241Z,96746.03
2022-08-17T10:15:14.765Z,96741.09
2022-08-17T10:17:47.781Z,96744.06
2022-08-17T10:20:29.909Z,96736.22
2022-08-17T10:23:31.976Z,96738.34
2022-08-17T10:26:27.427Z,96739.63
2022-08-17T10:29:10.640Z,96737.84
2022-08-17T10:31:50.725Z,96725.84
2022-08-17T10:34:40.983Z,96738.25
2022-08-17T10:37:41.560Z,96731.41
2022-08-17T10:40:26.542Z,96734.16
2022-08-17T10:43:12.111Z,96717.22
2022-08-17T10:46:31.699Z,96721.34
2022-08-17T10:49:29.775Z,96720.00
2022-08-17T10:52:04.227Z,96712.09
2022-08-17T10:54:49.494Z,96705.91
2022-08-17T10:57:32.209Z,96712.22
2022-08-17T11:00:17.368Z,96715.69
2022-08-17T11:02:49.725Z,96709.00
2022-08-17T11:05:41.525Z,96713.44
2022-08-17T11:08:19.855Z,96711.91
2022-08-17T11:11:21.163Z,96708.97
2022-08-17T11:14:04.924Z,96705.84
2022-08-17T11:16:50.621Z,96701.59
2022-08-17T11:20:08.025Z,96698.13
2022-08-17T11:22:55.922Z,96710.69
2022-08-17T11:25:36.545Z,96710.97
2022-08-17T11:28:28.318Z,96705.41
2022-08-17T11:30:59.617Z,96698.41
2022-08-17T11:33:30.538Z,96705.34
2022-08-17T11:36:25.534Z,96698.47
2022-08-17T11:39:36.137Z,96704.75
2022-08-17T11:42:21.386Z,96700.81
2022-08-17T11:45:32.078Z,96693.06
2022-08-17T11:48:46.070Z,96683.97
2022-08-17T11:51:33.773Z,96674.13
2022-08-17T11:56:53.296Z,96662.28
2022-08-17T11:59:50.262Z,96674.59
2022-08-17T12:02:29.891Z,96675.94
2022-08-17T12:05:16.146Z,96670.94
2022-08-17T12:08:05.008Z,96670.56
2022-08-17T12:10:36.105Z,96669.84
2022-08-17T12:13:16.244Z,96665.56
2022-08-17T12:15:50.800Z,96663.50
2022-08-17T12:18:28.389Z,96671.88
2022-08-17T12:21:49.031Z,96672.28
2022-08-17T12:24:18.861Z,96663.38
2022-08-17T12:26:57.440Z,96653.63
2022-08-17T12:29:38.404Z,96655.28
2022-08-17T12:32:13.215Z,96632.06
2022-08-17T12:34:43.057Z,96643.72
2022-08-17T12:37:22.311Z,96647.06
2022-08-17T12:40:05.032Z,96645.47
2022-08-17T12:42:37.625Z,96643.50
2022-08-17T12:45:22.163Z,96643.50
2022-08-17T12:47:49.582Z,96643.03
2022-08-17T12:50:29.813Z,96630.91
2022-08-17T12:53:01.632Z,96638.47
2022-08-17T12:55:36.783Z,96641.75
2022-08-17T12:58:04.653Z,96638.47
2022-08-17T13:00:41.177Z,96636.88
2022-08-17T13:03:19.514Z,96632.28
2022-08-17T13:05:52.692Z,96640.50
2022-08-17T13:08:25.337Z,96637.34
2022-08-17T13:10:58.230Z,96630.03
2022-08-17T13:13:36.961Z,96641.06
2022-08-17T13:16:17.813Z,96637.53
2022-08-17T13:18:49.867Z,96631.28
2022-08-17T13:21:19.987Z,96634.13
2022-08-17T13:24:19.565Z,96637.66
2022-08-17T13:26:46.514Z,96634.41
2022-08-17T13:29:24.301Z,96638.38
2022-08-17T13:32:03.844Z,96633.22
2022-08-17T13:34:39.900Z,96635.72
2022-08-17T13:37:30.811Z,96626.94
2022-08-17T13:40:10.003Z,96623.38
2022-08-17T13:42:51.486Z,96631.03
2022-08-17T13:45:36.483Z,96632.72
2022-08-17T13:48:16.199Z,96632.50
2022-08-17T13:51:25.084Z,96631.56
2022-08-17T13:53:57.448Z,96623.28
2022-08-17T13:56:39.785Z,96619.25
2022-08-17T13:59:15.294Z,96629.19
2022-08-17T14:01:53.606Z,96624.94
2022-08-17T14:04:28.545Z,96622.94
2022-08-17T14:07:24.871Z,96629.78
2022-08-17T14:10:00.443Z,96630.78
2022-08-17T14:12:29.674Z,96617.53
2022-08-17T14:14:59.320Z,96617.94
2022-08-17T14:17:29.199Z,96620.28
2022-08-17T14:19:56.323Z,96623.22
2022-08-17T14:22:32.326Z,96626.53
2022-08-17T14:25:02.021Z,96619.66
2022-08-17T14:27:32.147Z,96621.34
2022-08-17T14:30:00.381Z,96609.63
2022-08-17T14:32:31.893Z,96625.13
2022-08-17T14:34:59.921Z,96616.00
2022-08-17T14:37:28.819Z,96614.88
2022-08-17T14:40:00.378Z,96612.94
2022-08-17T14:42:32.854Z,96612.13
2022-08-17T14:45:00.345Z,96618.81
2022-08-17T14:47:27.381Z,96616.91
2022-08-17T14:49:54.213Z,96614.97
2022-08-17T14:52:22.247Z,96620.53
2022-08-17T14:54:51.736Z,96614.28
2022-08-17T14:57:23.728Z,96621.41
2022-08-17T15:00:02.262Z,96621.09
2022-08-17T15:02:31.111Z,96624.44
2022-08-17T15:05:06.177Z,96619.69
2022-08-17T15:07:33.622Z,96619.69
2022-08-17T15:10:02.375Z,96609.06
2022-08-17T15:12:34.570Z,96615.63
2022-08-17T15:15:14.382Z,96611.78
2022-08-17T15:17:46.751Z,96605.31
2022-08-17T15:20:21.440Z,96606.53
2022-08-17T15:22:56.460Z,96607.84
2022-08-17T15:25:32.313Z,96615.03
2022-08-17T15:28:00.640Z,96617.47
2022-08-17T15:30:30.577Z,96611.47
2022-08-17T15:32:59.323Z,96605.69
2022-08-17T15:35:30.969Z,96597.75
2022-08-17T15:38:11.187Z,96603.94
2022-08-17T15:40:42.412Z,96605.06
2022-08-17T15:43:17.267Z,96616.78
2022-08-17T15:45:59.588Z,96622.63
2022-08-17T15:48:45.173Z,96618.16
2022-08-17T15:51:31.150Z,96622.75
2022-08-17T15:54:19.188Z,96633.53
2022-08-17T15:56:52.457Z,96621.84
2022-08-17T15:59:24.921Z,96626.16
2022-08-17T16:03:14.688Z,96628.34
2022-08-17T16:04:40.349Z,96626.41
2022-08-17T16:07:12.182Z,96634.75
2022-08-17T16:09:39.477Z,96633.28
2022-08-17T16:12:16.343Z,96643.41
2022-08-17T16:14:44.092Z,96638.41
2022-08-17T16:17:15.591Z,96636.97
2022-08-17T16:20:05.346Z,96652.78
2022-08-17T16:22:35.789Z,96651.56
2022-08-17T16:25:08.078Z,96656.25
2022-08-17T16:27:35.442Z,96653.38
2022-08-17T16:30:03.590Z,96657.50
2022-08-17T16:32:32.875Z,96660.88
2022-08-17T16:35:11.594Z,96663.09
2022-08-17T16:37:44.583Z,96673.44
2022-08-17T16:40:14.815Z,96670.25
2022-08-17T16:42:45.929Z,96664.31
2022-08-17T16:45:25.336Z,96669.53
2022-08-17T16:47:53.805Z,96664.69
2022-08-17T16:50:25.712Z,96672.31
2022-08-17T16:52:53.163Z,96671.50
2022-08-17T16:55:22.478Z,96677.50
2022-08-17T16:57:50.553Z,96684.00
2022-08-17T17:03:21.976Z,96682.59
2022-08-17T17:05:58.111Z,96684.44
2022-08-17T17:09:03.983Z,96680.59
2022-08-17T17:11:44.493Z,96689.94
2022-08-17T17:14:50.624Z,96693.63
2022-08-17T17:17:46.775Z,96697.84
2022-08-17T17:20:29.655Z,96703.44
2022-08-17T17:23:18.823Z,96708.78
2022-08-17T17:26:01.078Z,96709.75
2022-08-17T17:28:44.102Z,96709.63
2022-08-17T17:31:21.718Z,96710.03
2022-08-17T17:34:04.250Z,96718.53
2022-08-17T17:36:46.584Z,96715.75
2022-08-17T17:39:46.850Z,96721.06
2022-08-17T17:46:25.435Z,96733.31
2022-08-17T17:48:50.870Z,96744.72
2022-08-17T17:52:08.500Z,96744.63
2022-08-17T17:55:03.458Z,96745.69
2022-08-17T17:57:59.720Z,96750.69
2022-08-17T18:00:41.652Z,96750.78
2022-08-17T18:03:28.513Z,96759.69
2022-08-17T18:06:06.992Z,96770.63
2022-08-17T18:09:22.917Z,96771.59
2022-08-17T18:12:15.483Z,96777.25
2022-08-17T18:15:12.693Z,96789.41
2022-08-17T18:17:58.916Z,96783.13
2022-08-17T18:20:32.490Z,96788.19
2022-08-17T18:23:10.993Z,96795.28
2022-08-17T18:25:52.080Z,96799.88
2022-08-17T18:28:32.825Z,96796.75
2022-08-17T18:31:24.126Z,96798.88
2022-08-17T18:35:08.707Z,96801.25
2022-08-17T18:37:39.731Z,96800.97
2022-08-17T18:40:33.556Z,96803.50
2022-08-17T18:43:07.038Z,96803.84
2022-08-17T18:46:28.828Z,96810.06
2022-08-17T18:49:08.032Z,96804.72
2022-08-17T18:51:42.898Z,96803.34
2022-08-17T18:54:16.118Z,96811.00
2022-08-17T18:57:02.584Z,96807.97
2022-08-17T18:59:40.524Z,96811.94
2022-08-17T19:02:38.709Z,96810.09
2022-08-17T19:05:25.877Z,96810.03
2022-08-17T19:07:56.304Z,96808.75
2022-08-17T19:10:45.992Z,96821.41
2022-08-17T19:13:29.614Z,96829.75
2022-08-17T19:16:15.834Z,96830.19
2022-08-17T19:19:08.849Z,96832.38
2022-08-17T19:22:01.245Z,96837.22
2022-08-17T19:24:33.284Z,96826.81
2022-08-17T19:27:24.031Z,96828.31
2022-08-17T19:29:58.300Z,96828.94
2022-08-17T19:32:29.664Z,96836.16
2022-08-17T19:34:58.778Z,96838.00
2022-08-17T19:38:01.268Z,96836.81
2022-08-17T19:41:06.499Z,96837.84
2022-08-17T19:43:42.590Z,96847.84
2022-08-17T19:46:20.702Z,96851.88
2022-08-17T19:49:11.528Z,96849.38
2022-08-17T19:52:05.376Z,96849.47
2022-08-17T19:54:48.087Z,96841.28
2022-08-17T19:57:53.403Z,96842.53
2022-08-17T20:00:20.788Z,96847.78
2022-08-17T20:03:33.409Z,96849.84
2022-08-17T20:09:14.979Z,96847.06
2022-08-17T20:12:00.717Z,96847.06
2022-08-17T20:14:53.606Z,96857.09
2022-08-17T20:20:28.197Z,96854.75
2022-08-17T20:23:31.080Z,96853.38
2022-08-17T20:26:22.108Z,96850.19
2022-08-17T20:29:19.119Z,96853.78
2022-08-17T20:32:07.928Z,96863.94
2022-08-17T20:34:47.697Z,96863.19
2022-08-17T20:37:17.996Z,96870.31
2022-08-17T20:40:14.217Z,96870.84
2022-08-17T20:42:48.576Z,96863.06
2022-08-17T20:45:53.606Z,96858.78
2022-08-17T20:48:38.628Z,96865.47
2022-08-17T20:51:30.698Z,96859.72
2022-08-17T20:57:34.521Z,96852.63
2022-08-17T21:00:28.733Z,96851.84
2022-08-17T21:03:23.531Z,96847.34
2022-08-17T21:06:01.066Z,96847.41
2022-08-17T21:08:58.726Z,96862.25
2022-08-17T21:12:02.273Z,96847.22
2022-08-17T21:14:40.706Z,96858.19
2022-08-17T21:17:37.269Z,96852.31
2022-08-17T21:20:32.325Z,96855.84
2022-08-17T21:23:14.579Z,96860.75
2022-08-17T21:26:30.214Z,96863.91
2022-08-17T21:29:31.967Z,96855.06
2022-08-17T21:32:00.761Z,96852.19
2022-08-17T21:34:48.526Z,96872.19
2022-08-17T21:37:34.689Z,96863.59
2022-08-17T21:40:24.895Z,96859.84
2022-08-17T21:42:56.567Z,96861.31
2022-08-17T21:45:31.425Z,96856.53
2022-08-17T21:48:23.839Z,96857.19
2022-08-17T21:51:14.225Z,96861.72
2022-08-17T21:53:53.009Z,96861.53
2022-08-17T21:56:36.770Z,96855.59
2022-08-17T21:59:22.316Z,96854.19
2022-08-17T22:01:58.172Z,96859.31
2022-08-17T22:05:11.503Z,96860.19
2022-08-17T22:07:51.862Z,96852.19
2022-08-17T22:10:35.173Z,96850.41
2022-08-17T22:13:19.799Z,96858.84
2022-08-17T22:16:29.084Z,96849.56
2022-08-17T22:19:05.014Z,96848.59
2022-08-17T22:21:33.677Z,96849.25
2022-08-17T22:24:43.003Z,96854.97
2022-08-17T22:27:16.051Z,96859.72
2022-08-17T22:30:07.172Z,96845.13
2022-08-17T22:32:45.028Z,96851.34
2022-08-17T22:35:38.338Z,96860.19
2022-08-17T22:38:35.638Z,96857.50
2022-08-17T22:41:42.293Z,96852.59
2022-08-17T22:44:27.926Z,96861.25
2022-08-17T22:47:00.620Z,96852.19
2022-08-17T22:49:53.865Z,96852.66
2022-08-17T22:53:02.039Z,96854.69
2022-08-17T22:55:52.696Z,96852.44
2022-08-17T22:58:58.561Z,96852.50
2022-08-17T23:01:36.345Z,96854.34
2022-08-17T23:04:31.302Z,96860.50
2022-08-17T23:06:58.804Z,96862.75
2022-08-17T23:09:26.492Z,96869.16
2022-08-17T23:11:59.093Z,96871.63
2022-08-17T23:14:31.887Z,96874.06
2022-08-17T23:17:07.169Z,96866.84
2022-08-17T23:19:35.933Z,96861.72
2022-08-17T23:22:07.137Z,96860.44
2022-08-17T23:24:50.271Z,96862.13
2022-08-17T23:30:11.755Z,96856.34
2022-08-17T23:32:53.623Z,96862.72
2022-08-17T23:35:40.223Z,96864.16
2022-08-17T23:38:17.056Z,96856.31
2022-08-17T23:40:45.037Z,96861.66
2022-08-17T23:43:25.320Z,96862.25
2022-08-17T23:45:59.504Z,96866.59
2022-08-17T23:48:37.428Z,96857.53
2022-08-17T23:51:09.592Z,96866.56
2022-08-17T23:53:44.011Z,96866.50
2022-08-17T23:56:12.076Z,96865.91
2022-08-17T23:58:42.605Z,96870.22
